createdAt,value
2019-04-19T00:01:49.180Z,102685.71
2019-04-19T00:04:16.194Z,102689.90
2019-04-19T00:06:45.055Z,102685.87
2019-04-19T00:09:28.394Z,102687.70
2019-04-19T00:11:55.952Z,102688.36
2019-04-19T00:14:16.999Z,102688.02
2019-04-19T00:16:46.984Z,102684.63
2019-04-19T00:19:35.149Z,102686.47
2019-04-19T00:22:09.173Z,102688.47
2019-04-19T00:24:16.729Z,102684.92
2019-04-19T00:26:46.709Z,102685.58
2019-04-19T00:29:21.970Z,102684.58
2019-04-19T00:32:06.476Z,102685.08
2019-04-19T00:34:16.618Z,102691.59
2019-04-19T00:36:46.645Z,102686.56
2019-04-19T00:39:38.466Z,102683.16
2019-04-19T00:42:24.946Z,102682.64
2019-04-19T00:45:01.539Z,102683.48
2019-04-19T00:47:28.701Z,102686.85
2019-04-19T00:49:52.662Z,102686.17
2019-04-19T00:52:33.594Z,102683.81
2019-04-19T00:54:52.080Z,102681.09
2019-04-19T00:57:22.490Z,102681.09
2019-04-19T00:59:45.456Z,102693.31
2019-04-19T01:02:15.486Z,102689.09
2019-04-19T01:04:41.566Z,102692.76
2019-04-19T01:07:18.880Z,102697.44
2019-04-19T01:09:56.299Z,102701.47
2019-04-19T01:12:23.589Z,102695.38
2019-04-19T01:15:00.971Z,102699.06
2019-04-19T01:17:31.266Z,102697.77
2019-04-19T01:19:52.991Z,102700.45
2019-04-19T01:22:22.063Z,102707.13
2019-04-19T01:24:49.571Z,102704.41
2019-04-19T01:27:21.176Z,102705.78
2019-04-19T01:29:51.600Z,102710.98
2019-04-19T01:32:19.786Z,102703.57
2019-04-19T01:34:54.378Z,102709.80
2019-04-19T01:37:23.283Z,102719.53
2019-04-19T01:40:05.818Z,102715.95
2019-04-19T01:42:38.893Z,102715.11
2019-04-19T01:45:06.024Z,102711.43
2019-04-19T01:47:51.465Z,102721.48
2019-04-19T01:50:18.381Z,102718.44
2019-04-19T01:52:57.139Z,102716.20
2019-04-19T01:55:16.812Z,102719.38
2019-04-19T01:57:38.806Z,102717.25
2019-04-19T02:00:12.657Z,102719.73
2019-04-19T02:02:46.883Z,102722.77
2019-04-19T02:05:15.048Z,102720.91
2019-04-19T02:07:42.428Z,102728.06
2019-04-19T02:10:57.767Z,102731.72
2019-04-19T02:13:26.946Z,102733.75
2019-04-19T02:15:51.330Z,102730.31
2019-04-19T02:18:23.292Z,102734.81
2019-04-19T02:20:49.986Z,102734.96
2019-04-19T02:23:20.124Z,102739.66
2019-04-19T02:25:51.650Z,102741.09
2019-04-19T02:28:24.502Z,102735.00
2019-04-19T02:31:08.976Z,102741.13
2019-04-19T02:33:47.949Z,102736.39
2019-04-19T02:36:15.556Z,102741.77
2019-04-19T02:38:53.766Z,102748.73
2019-04-19T02:48:54.182Z,102746.88
2019-04-19T02:53:47.080Z,102750.05
2019-04-19T02:59:21.140Z,102752.91
2019-04-19T03:02:04.505Z,102755.55
2019-04-19T03:06:36.745Z,102755.36
2019-04-19T03:08:59.292Z,102752.40
2019-04-19T03:11:41.281Z,102755.19
2019-04-19T03:14:12.825Z,102749.95
2019-04-19T03:16:48.007Z,102755.94
2019-04-19T03:19:09.567Z,102755.68
2019-04-19T03:21:43.295Z,102753.94
2019-04-19T03:24:14.436Z,102750.91
2019-04-19T03:26:41.540Z,102757.25
2019-04-19T03:29:08.803Z,102759.16
2019-04-19T03:31:59.072Z,102763.31
2019-04-19T03:34:36.772Z,102761.63
2019-04-19T03:36:47.603Z,102764.75
2019-04-19T03:39:23.054Z,102768.86
2019-04-19T03:44:32.196Z,102767.44
2019-04-19T03:47:04.368Z,102769.22
2019-04-19T03:52:08.588Z,102777.34
2019-04-19T03:54:29.870Z,102767.96
2019-04-19T03:57:00.657Z,102764.08
2019-04-19T03:59:16.211Z,102770.28
2019-04-19T04:01:49.895Z,102779.52
2019-04-19T04:04:20.797Z,102772.55
2019-04-19T04:06:46.214Z,102774.65
2019-04-19T04:09:25.043Z,102784.38
2019-04-19T04:12:03.283Z,102775.93
2019-04-19T04:14:51.905Z,102780.58
2019-04-19T04:17:05.830Z,102779.02
2019-04-19T04:19:35.618Z,102786.77
2019-04-19T04:22:07.700Z,102792.40
2019-04-19T04:24:39.797Z,102794.53
2019-04-19T04:27:14.134Z,102794.80
2019-04-19T04:29:41.775Z,102805.73
2019-04-19T04:32:15.544Z,102804.43
2019-04-19T04:34:47.824Z,102800.86
2019-04-19T04:37:24.857Z,102800.73
2019-04-19T04:39:36.903Z,102800.28
2019-04-19T04:42:15.683Z,102805.02
2019-04-19T04:45:01.847Z,102813.25
2019-04-19T04:47:28.671Z,102809.01
2019-04-19T04:50:17.014Z,102812.53
2019-04-19T04:52:31.875Z,102819.36
2019-04-19T04:54:58.957Z,102815.41
2019-04-19T04:57:41.682Z,102814.66
2019-04-19T05:00:03.326Z,102815.92
2019-04-19T05:02:48.651Z,102819.45
2019-04-19T05:05:19.790Z,102825.52
2019-04-19T05:07:58.357Z,102824.19
2019-04-19T05:10:21.649Z,102821.91
2019-04-19T05:13:12.224Z,102827.69
2019-04-19T05:15:26.270Z,102828.73
2019-04-19T05:18:18.705Z,102830.42
2019-04-19T05:20:22.675Z,102831.14
2019-04-19T05:22:55.283Z,102829.34
2019-04-19T05:25:30.812Z,102830.31
2019-04-19T05:27:55.536Z,102834.75
2019-04-19T05:30:09.109Z,102838.50
2019-04-19T05:32:43.513Z,102838.50
2019-04-19T05:35:24.182Z,102842.35
2019-04-19T05:38:03.417Z,102841.66
2019-04-19T05:40:47.486Z,102842.73
2019-04-19T05:43:50.015Z,102840.63
2019-04-19T05:46:05.141Z,102842.46
2019-04-19T05:48:27.347Z,102842.46
2019-04-19T05:51:12.956Z,102843.23
2019-04-19T05:53:24.544Z,102840.40
2019-04-19T05:55:41.120Z,102847.45
2019-04-19T05:58:20.351Z,102843.54
2019-04-19T06:00:55.309Z,102842.62
2019-04-19T06:03:21.651Z,102841.66
2019-04-19T06:06:10.857Z,102847.91
2019-04-19T06:08:20.904Z,102849.67
2019-04-19T06:10:52.272Z,102843.44
2019-04-19T06:13:17.086Z,102845.02
2019-04-19T06:16:05.623Z,102841.16
2019-04-19T06:18:38.105Z,102843.86
2019-04-19T06:21:17.267Z,102848.41
2019-04-19T06:23:48.379Z,102848.17
2019-04-19T06:26:46.482Z,102848.80
2019-04-19T06:28:51.916Z,102845.97
2019-04-19T06:31:19.527Z,102847.12
2019-04-19T06:33:42.945Z,102849.89
2019-04-19T06:35:59.512Z,102847.37
2019-04-19T06:38:24.979Z,102851.46
2019-04-19T06:41:01.518Z,102853.65
2019-04-19T06:43:35.977Z,102859.33
2019-04-19T06:46:09.348Z,102852.03
2019-04-19T06:48:29.577Z,102854.98
2019-04-19T06:50:59.094Z,102853.94
2019-04-19T06:53:31.052Z,102856.73
2019-04-19T06:56:07.987Z,102861.30
2019-04-19T06:58:32.769Z,102866.91
2019-04-19T07:01:10.730Z,102860.71
2019-04-19T07:03:25.788Z,102861.05
2019-04-19T07:06:09.065Z,102865.02
2019-04-19T07:11:16.395Z,102863.34
2019-04-19T07:13:38.515Z,102865.69
2019-04-19T07:16:19.312Z,102871.67
2019-04-19T07:18:39.292Z,102872.69
2019-04-19T07:21:16.305Z,102866.98
2019-04-19T07:23:49.789Z,102876.16
2019-04-19T07:26:25.007Z,102871.33
2019-04-19T07:28:33.263Z,102871.00
2019-04-19T07:31:03.193Z,102874.33
2019-04-19T07:33:39.981Z,102877.22
2019-04-19T07:36:17.094Z,102872.60
2019-04-19T07:38:53.790Z,102879.12
2019-04-19T07:41:17.798Z,102880.39
2019-04-19T07:44:01.284Z,102887.91
2019-04-19T07:46:41.099Z,102885.38
2019-04-19T07:48:55.349Z,102884.16
2019-04-19T07:51:30.005Z,102886.02
2019-04-19T07:53:55.272Z,102880.16
2019-04-19T07:56:40.424Z,102883.95
2019-04-19T07:59:24.736Z,102886.20
2019-04-19T08:02:07.346Z,102881.91
2019-04-19T08:04:37.829Z,102891.00
2019-04-19T08:06:53.962Z,102889.25
2019-04-19T08:14:22.677Z,102894.70
2019-04-19T08:17:31.168Z,102896.03
2019-04-19T08:29:13.295Z,102889.77
2019-04-19T08:31:29.578Z,102886.94
2019-04-19T08:34:02.670Z,102889.25
2019-04-19T08:36:33.054Z,102888.12
2019-04-19T08:39:19.045Z,102886.55
2019-04-19T08:41:46.692Z,102882.29
2019-04-19T08:44:18.020Z,102886.14
2019-04-19T08:46:32.599Z,102878.12
2019-04-19T08:49:05.659Z,102882.04
2019-04-19T08:51:45.228Z,102882.35
2019-04-19T08:54:36.959Z,102876.45
2019-04-19T08:56:53.700Z,102878.00
2019-04-19T08:59:38.693Z,102881.70
2019-04-19T09:02:05.609Z,102881.88
2019-04-19T09:04:34.773Z,102877.97
2019-04-19T09:09:35.521Z,102873.45
2019-04-19T09:12:06.565Z,102877.30
2019-04-19T09:14:38.079Z,102876.32
2019-04-19T09:17:14.225Z,102875.56
2019-04-19T09:19:58.024Z,102874.13
2019-04-19T09:22:04.404Z,102872.69
2019-04-19T09:24:30.956Z,102870.06
2019-04-19T09:27:01.325Z,102868.20
2019-04-19T09:29:40.408Z,102868.67
2019-04-19T09:31:56.031Z,102865.89
2019-04-19T09:34:21.538Z,102863.53
2019-04-19T09:37:01.431Z,102868.11
2019-04-19T09:39:34.795Z,102874.04
2019-04-19T09:41:57.434Z,102870.70
2019-04-19T09:44:29.093Z,102870.61
2019-04-19T09:46:50.814Z,102861.47
2019-04-19T09:49:40.771Z,102859.00
2019-04-19T09:52:03.278Z,102864.16
2019-04-19T09:54:45.903Z,102875.73
2019-04-19T09:57:07.052Z,102860.07
2019-04-19T09:59:27.857Z,102857.51
2019-04-19T10:01:57.378Z,102861.47
2019-04-19T10:04:21.044Z,102851.91
2019-04-19T10:06:49.526Z,102856.13
2019-04-19T10:09:21.872Z,102848.45
2019-04-19T10:11:48.657Z,102848.27
2019-04-19T10:14:17.378Z,102847.88
2019-04-19T10:16:48.452Z,102844.72
2019-04-19T10:19:17.070Z,102841.44
2019-04-19T10:21:49.931Z,102851.04
2019-04-19T10:24:20.950Z,102840.21
2019-04-19T10:26:53.012Z,102839.94
2019-04-19T10:29:27.127Z,102829.95
2019-04-19T10:31:57.162Z,102830.02
2019-04-19T10:34:26.504Z,102833.75
2019-04-19T10:36:57.025Z,102817.02
2019-04-19T10:39:27.662Z,102827.33
2019-04-19T10:41:56.537Z,102827.61
2019-04-19T10:44:26.997Z,102833.94
2019-04-19T10:46:56.627Z,102828.70
2019-04-19T10:49:33.494Z,102818.97
2019-04-19T10:51:56.865Z,102818.66
2019-04-19T10:54:26.605Z,102817.14
2019-04-19T10:57:12.912Z,102814.19
2019-04-19T10:59:42.546Z,102814.03
2019-04-19T11:02:11.218Z,102813.71
2019-04-19T11:04:40.614Z,102811.12
2019-04-19T11:07:09.589Z,102804.55
2019-04-19T11:09:38.109Z,102809.72
2019-04-19T11:12:07.993Z,102807.58
2019-04-19T11:14:36.539Z,102809.14
2019-04-19T11:17:07.445Z,102804.97
2019-04-19T11:19:52.154Z,102799.97
2019-04-19T11:22:07.705Z,102804.58
2019-04-19T11:24:36.465Z,102800.48
2019-04-19T11:27:05.292Z,102788.29
2019-04-19T11:29:34.523Z,102792.65
2019-04-19T11:32:10.456Z,102789.42
2019-04-19T11:34:40.923Z,102791.97
2019-04-19T11:37:13.194Z,102782.66
2019-04-19T11:39:41.336Z,102790.20
2019-04-19T11:42:10.218Z,102787.62
2019-04-19T11:44:39.513Z,102778.83
2019-04-19T11:47:08.974Z,102793.65
2019-04-19T11:49:40.899Z,102788.75
2019-04-19T11:52:11.222Z,102787.30
2019-04-19T11:54:39.629Z,102792.50
2019-04-19T11:57:10.859Z,102792.64
2019-04-19T11:59:48.869Z,102774.88
2019-04-19T12:02:20.795Z,102778.92
2019-04-19T12:04:48.428Z,102780.31
2019-04-19T12:07:16.923Z,102775.62
2019-04-19T12:09:45.367Z,102775.91
2019-04-19T12:12:14.971Z,102775.55
2019-04-19T12:14:46.038Z,102775.84
2019-04-19T12:17:15.248Z,102774.84
2019-04-19T12:19:50.480Z,102771.28
2019-04-19T12:22:14.922Z,102763.32
2019-04-19T12:24:44.684Z,102765.41
2019-04-19T12:27:13.856Z,102761.73
2019-04-19T12:29:47.777Z,102764.45
2019-04-19T12:32:12.636Z,102757.15
2019-04-19T12:34:44.598Z,102757.41
2019-04-19T12:37:11.648Z,102753.77
2019-04-19T12:39:41.108Z,102753.45
2019-04-19T12:42:11.399Z,102754.77
2019-04-19T12:44:40.606Z,102759.52
2019-04-19T12:47:11.036Z,102755.70
2019-04-19T12:49:51.068Z,102753.41
2019-04-19T12:52:10.184Z,102753.80
2019-04-19T12:54:39.316Z,102743.64
2019-04-19T12:57:07.915Z,102746.92
2019-04-19T12:59:36.401Z,102739.71
2019-04-19T13:02:06.504Z,102743.95
2019-04-19T13:04:36.609Z,102740.61
2019-04-19T13:07:06.814Z,102741.96
2019-04-19T13:09:35.183Z,102739.52
2019-04-19T13:12:05.191Z,102740.25
2019-04-19T13:14:33.645Z,102738.80
2019-04-19T13:17:02.224Z,102735.11
2019-04-19T13:19:31.266Z,102724.33
2019-04-19T13:22:00.593Z,102728.46
2019-04-19T13:24:29.181Z,102725.30
2019-04-19T13:26:59.081Z,102732.05
2019-04-19T13:29:27.897Z,102727.69
2019-04-19T13:31:56.735Z,102725.45
2019-04-19T13:34:25.369Z,102725.47
2019-04-19T13:37:13.823Z,102722.22
2019-04-19T13:39:46.636Z,102719.83
2019-04-19T13:42:17.132Z,102722.77
2019-04-19T13:44:45.544Z,102715.98
2019-04-19T13:47:14.004Z,102710.61
2019-04-19T13:49:42.611Z,102715.95
2019-04-19T13:52:12.643Z,102713.63
2019-04-19T13:54:41.312Z,102714.77
2019-04-19T13:57:11.056Z,102711.14
2019-04-19T13:59:48.159Z,102707.66
2019-04-19T14:02:10.578Z,102707.83
2019-04-19T14:04:39.730Z,102706.16
2019-04-19T14:07:09.375Z,102707.97
2019-04-19T14:09:39.242Z,102701.14
2019-04-19T14:12:09.262Z,102696.27
2019-04-19T14:14:39.021Z,102697.20
2019-04-19T14:17:07.674Z,102702.19
2019-04-19T14:19:36.738Z,102696.64
2019-04-19T14:22:06.877Z,102687.20
2019-04-19T14:24:35.604Z,102687.28
2019-04-19T14:27:05.785Z,102687.59
2019-04-19T14:29:35.188Z,102683.00
2019-04-19T14:32:05.238Z,102678.58
2019-04-19T14:34:35.214Z,102684.32
2019-04-19T14:37:04.542Z,102675.95
2019-04-19T14:39:34.305Z,102677.23
2019-04-19T14:42:03.498Z,102673.14
2019-04-19T14:44:33.614Z,102670.98
2019-04-19T14:47:03.155Z,102669.38
2019-04-19T14:49:32.737Z,102661.08
2019-04-19T14:52:01.467Z,102668.34
2019-04-19T14:54:30.053Z,102669.64
2019-04-19T14:56:58.887Z,102659.95
2019-04-19T14:59:27.349Z,102667.93
2019-04-19T15:02:13.141Z,102664.01
2019-04-19T15:04:46.886Z,102667.05
2019-04-19T15:07:16.594Z,102657.58
2019-04-19T15:09:45.891Z,102653.44
2019-04-19T15:12:14.456Z,102661.09
2019-04-19T15:14:43.010Z,102651.77
2019-04-19T15:17:11.798Z,102659.45
2019-04-19T15:19:40.297Z,102648.66
2019-04-19T15:22:08.766Z,102646.98
2019-04-19T15:24:37.216Z,102645.37
2019-04-19T15:27:05.684Z,102638.42
2019-04-19T15:29:34.698Z,102641.22
2019-04-19T15:32:04.145Z,102640.03
2019-04-19T15:34:33.710Z,102641.97
2019-04-19T15:37:04.038Z,102634.28
2019-04-19T15:39:33.742Z,102639.16
2019-04-19T15:42:02.511Z,102632.97
2019-04-19T15:44:30.893Z,102629.41
2019-04-19T15:47:00.143Z,102627.29
2019-04-19T15:49:28.589Z,102631.30
2019-04-19T15:51:57.452Z,102632.00
2019-04-19T15:54:26.406Z,102629.37
2019-04-19T15:56:54.845Z,102625.05
2019-04-19T15:59:26.630Z,102627.50
2019-04-19T16:01:55.972Z,102626.08
2019-04-19T16:04:43.934Z,102626.20
2019-04-19T16:07:32.196Z,102628.19
2019-04-19T16:10:12.960Z,102616.75
2019-04-19T16:12:44.013Z,102620.36
2019-04-19T16:15:13.970Z,102622.53
2019-04-19T16:17:43.734Z,102619.80
2019-04-19T16:20:13.404Z,102619.18
2019-04-19T16:22:42.426Z,102624.13
2019-04-19T16:25:11.308Z,102619.66
2019-04-19T16:27:42.012Z,102625.22
2019-04-19T16:30:10.321Z,102622.94
2019-04-19T16:32:39.095Z,102621.62
2019-04-19T16:35:07.944Z,102624.79
2019-04-19T16:37:37.180Z,102616.02
2019-04-19T16:40:09.875Z,102617.91
2019-04-19T16:42:38.997Z,102619.80
2019-04-19T16:45:08.223Z,102624.49
2019-04-19T16:47:37.505Z,102616.45
2019-04-19T16:50:07.122Z,102616.67
2019-04-19T16:52:36.458Z,102622.53
2019-04-19T16:55:07.389Z,102618.58
2019-04-19T16:57:36.482Z,102625.27
2019-04-19T17:00:13.003Z,102616.68
2019-04-19T17:02:42.908Z,102620.24
2019-04-19T17:05:12.672Z,102623.33
2019-04-19T17:07:41.665Z,102614.89
2019-04-19T17:10:10.206Z,102620.02
2019-04-19T17:12:39.652Z,102622.72
2019-04-19T17:15:10.752Z,102625.00
2019-04-19T17:17:50.932Z,102620.09
2019-04-19T17:20:33.999Z,102624.60
2019-04-19T17:23:02.791Z,102628.12
2019-04-19T17:25:31.266Z,102634.39
2019-04-19T17:28:00.954Z,102631.25
2019-04-19T17:30:36.378Z,102624.97
2019-04-19T17:33:06.173Z,102629.30
2019-04-19T17:35:34.814Z,102629.91
2019-04-19T17:38:03.299Z,102631.64
2019-04-19T17:40:32.389Z,102631.52
2019-04-19T17:43:01.373Z,102630.91
2019-04-19T17:45:29.881Z,102631.59
2019-04-19T17:47:58.554Z,102639.35
2019-04-19T17:50:27.118Z,102640.58
2019-04-19T17:52:56.688Z,102640.74
2019-04-19T17:55:31.011Z,102647.75
2019-04-19T17:57:56.942Z,102651.11
2019-04-19T18:00:26.108Z,102642.70
2019-04-19T18:02:55.254Z,102652.67
2019-04-19T18:05:24.279Z,102656.38
2019-04-19T18:07:53.925Z,102660.87
2019-04-19T18:10:27.195Z,102662.98
2019-04-19T18:12:53.170Z,102659.33
2019-04-19T18:15:22.119Z,102659.14
2019-04-19T18:17:55.558Z,102662.09
2019-04-19T18:20:22.960Z,102661.33
2019-04-19T18:23:00.742Z,102664.36
2019-04-19T18:25:22.180Z,102669.92
2019-04-19T18:27:53.825Z,102671.33
2019-04-19T18:30:22.153Z,102678.55
2019-04-19T18:32:55.032Z,102676.95
2019-04-19T18:35:29.024Z,102673.72
2019-04-19T18:37:53.604Z,102680.80
2019-04-19T18:40:22.181Z,102685.34
2019-04-19T18:43:06.409Z,102684.87
2019-04-19T18:45:25.096Z,102682.60
2019-04-19T18:47:51.191Z,102680.16
2019-04-19T18:50:20.331Z,102687.80
2019-04-19T18:52:53.646Z,102685.42
2019-04-19T18:55:27.518Z,102687.66
2019-04-19T18:57:49.978Z,102690.67
2019-04-19T19:00:18.965Z,102694.68
2019-04-19T19:02:53.871Z,102694.08
2019-04-19T19:05:18.251Z,102696.04
2019-04-19T19:07:49.335Z,102689.00
2019-04-19T19:10:24.595Z,102695.46
2019-04-19T19:12:49.610Z,102690.05
2019-04-19T19:15:18.677Z,102697.23
2019-04-19T19:17:50.811Z,102698.89
2019-04-19T19:20:22.455Z,102698.16
2019-04-19T19:23:05.527Z,102710.20
2019-04-19T19:25:34.332Z,102709.44
2019-04-19T19:27:50.414Z,102711.53
2019-04-19T19:30:20.757Z,102709.60
2019-04-19T19:32:53.960Z,102706.50
2019-04-19T19:35:23.154Z,102709.20
2019-04-19T19:37:50.844Z,102706.76
2019-04-19T19:40:29.441Z,102703.77
2019-04-19T19:43:18.125Z,102709.91
2019-04-19T19:45:36.644Z,102709.64
2019-04-19T19:48:26.106Z,102711.47
2019-04-19T19:50:58.624Z,102714.64
2019-04-19T19:53:35.454Z,102710.80
2019-04-19T19:55:54.834Z,102712.16
2019-04-19T19:58:19.829Z,102721.10
2019-04-19T20:00:56.785Z,102711.98
2019-04-19T20:03:13.581Z,102711.58
2019-04-19T20:05:40.233Z,102712.94
2019-04-19T20:08:07.871Z,102713.01
2019-04-19T20:10:40.651Z,102715.55
2019-04-19T20:13:11.230Z,102713.43
2019-04-19T20:15:40.662Z,102717.48
2019-04-19T20:18:08.407Z,102712.42
2019-04-19T20:20:40.834Z,102717.51
2019-04-19T20:23:12.256Z,102722.91
2019-04-19T20:25:46.383Z,102718.86
2019-04-19T20:28:16.307Z,102723.24
2019-04-19T20:30:43.011Z,102724.14
2019-04-19T20:33:12.594Z,102725.00
2019-04-19T20:35:40.979Z,102722.81
2019-04-19T20:38:12.656Z,102720.31
2019-04-19T20:40:49.321Z,102718.98
2019-04-19T20:43:30.591Z,102717.67
2019-04-19T20:45:46.161Z,102720.02
2019-04-19T20:48:16.197Z,102725.42
2019-04-19T20:50:52.372Z,102721.38
2019-04-19T20:53:21.923Z,102723.74
2019-04-19T20:56:20.492Z,102723.74
2019-04-19T20:58:27.975Z,102724.08
2019-04-19T21:00:50.443Z,102727.45
2019-04-19T21:03:26.207Z,102729.14
2019-04-19T21:05:50.907Z,102732.52
2019-04-19T21:08:25.255Z,102732.67
2019-04-19T21:10:59.564Z,102727.12
2019-04-19T21:13:25.262Z,102730.50
2019-04-19T21:15:54.383Z,102732.03
2019-04-19T21:18:25.818Z,102736.23
2019-04-19T21:20:55.791Z,102735.56
2019-04-19T21:23:27.463Z,102737.91
2019-04-19T21:25:57.822Z,102732.48
2019-04-19T21:28:35.550Z,102733.17
2019-04-19T21:30:59.919Z,102739.58
2019-04-19T21:33:27.038Z,102737.06
2019-04-19T21:36:00.845Z,102743.27
2019-04-19T21:38:27.205Z,102741.92
2019-04-19T21:40:56.039Z,102738.91
2019-04-19T21:43:28.456Z,102744.63
2019-04-19T21:45:55.118Z,102745.95
2019-04-19T21:48:26.981Z,102741.03
2019-04-19T21:50:55.349Z,102745.59
2019-04-19T21:53:25.848Z,102741.19
2019-04-19T21:56:02.129Z,102743.84
2019-04-19T21:58:25.079Z,102743.16
2019-04-19T22:01:02.498Z,102738.58
2019-04-19T22:03:30.594Z,102749.09
2019-04-19T22:06:03.991Z,102742.36
2019-04-19T22:08:33.319Z,102752.13
2019-04-19T22:11:00.490Z,102749.78
2019-04-19T22:13:33.303Z,102749.74
2019-04-19T22:16:01.931Z,102753.34
2019-04-19T22:18:32.333Z,102743.57
2019-04-19T22:21:03.721Z,102744.23
2019-04-19T22:23:30.977Z,102743.58
2019-04-19T22:26:13.045Z,102749.06
2019-04-19T22:28:30.027Z,102751.59
2019-04-19T22:31:00.253Z,102749.05
2019-04-19T22:33:28.785Z,102745.52
2019-04-19T22:36:00.702Z,102741.48
2019-04-19T22:38:27.680Z,102745.16
2019-04-19T22:40:59.028Z,102746.16
2019-04-19T22:43:26.859Z,102753.23
2019-04-19T22:46:01.809Z,102749.16
2019-04-19T22:48:26.672Z,102753.69
2019-04-19T22:50:58.273Z,102754.17
2019-04-19T22:53:32.131Z,102755.80
2019-04-19T22:56:08.114Z,102750.09
2019-04-19T22:58:29.961Z,102748.44
2019-04-19T23:00:59.021Z,102751.06
2019-04-19T23:03:33.632Z,102750.85
2019-04-19T23:05:59.569Z,102751.34
2019-04-19T23:08:33.206Z,102752.43
2019-04-19T23:11:02.336Z,102755.31
2019-04-19T23:13:29.702Z,102746.86
2019-04-19T23:16:04.010Z,102750.23
2019-04-19T23:18:30.390Z,102752.08
2019-04-19T23:21:05.527Z,102751.06
2019-04-19T23:23:31.678Z,102745.21
2019-04-19T23:26:13.641Z,102749.94
2019-04-19T23:28:34.774Z,102745.63
2019-04-19T23:31:08.235Z,102738.86
2019-04-19T23:33:30.292Z,102738.42
2019-04-19T23:35:59.598Z,102737.44
2019-04-19T23:38:30.834Z,102729.51
2019-04-19T23:40:59.290Z,102732.84
2019-04-19T23:43:34.242Z,102738.76
2019-04-19T23:45:58.129Z,102732.14
2019-04-19T23:48:31.472Z,102732.42
2019-04-19T23:50:57.088Z,102732.56
2019-04-19T23:53:32.915Z,102726.80
2019-04-19T23:55:56.369Z,102717.67
2019-04-19T23:58:29.541Z,102722.05
